Terminal Aerodrome Forecast
Issued by NWS

Home | Current Version | Previous Version | Text Only | Print | Product List | Glossary On
Versions: 1 2 3 4 5 6 7 8 9 10 11 12 13 14 15 16 17 18 19 20 21 22 23 24 25 26 27 28 29
511
FTUS45 KSLC 292136 AAA
TAFPVU
TAF AMD
KPVU 292136Z 2922/3018 VRB20G30KT P6SM -TSRA SCT070CB BKN100
     FM292215 VRB05KT P6SM VCSH SCT070 BKN100
     FM300300 VRB04KT P6SM SCT050 BKN100
      AMD LTD TO CLD VIS AND WIND=

USA.gov is the U.S. government's official web portal to all federal, state and local government web resources and services.